sensor_id;sensor_type;location;lat;lon;timestamp;P1;durP1;ratioP1;P2;durP2;ratioP2
55879;SDS011;41802;51.564;-1.838;2023-05-19T00:01:46;7.53;;;2.50;;
55879;SDS011;41802;51.564;-1.838;2023-05-19T00:04:14;6.72;;;2.55;;
55879;SDS011;41802;51.564;-1.838;2023-05-19T00:06:45;10.00;;;2.60;;
55879;SDS011;41802;51.564;-1.838;2023-05-19T00:09:16;12.85;;;3.10;;
55879;SDS011;41802;51.564;-1.838;2023-05-19T00:11:44;6.93;;;2.85;;
55879;SDS011;41802;51.564;-1.838;2023-05-19T00:14:12;10.43;;;3.45;;
55879;SDS011;41802;51.564;-1.838;2023-05-19T00:16:40;9.02;;;2.88;;
55879;SDS011;41802;51.564;-1.838;2023-05-19T00:19:09;7.23;;;2.07;;
55879;SDS011;41802;51.564;-1.838;2023-05-19T00:21:36;14.13;;;2.83;;
55879;SDS011;41802;51.564;-1.838;2023-05-19T00:24:06;8.73;;;2.40;;
55879;SDS011;41802;51.564;-1.838;2023-05-19T00:26:34;10.85;;;2.83;;
55879;SDS011;41802;51.564;-1.838;2023-05-19T00:29:02;6.97;;;2.92;;
55879;SDS011;41802;51.564;-1.838;2023-05-19T00:31:30;7.63;;;2.47;;
55879;SDS011;41802;51.564;-1.838;2023-05-19T00:34:00;9.65;;;2.92;;
55879;SDS011;41802;51.564;-1.838;2023-05-19T00:36:28;7.63;;;2.75;;
55879;SDS011;41802;51.564;-1.838;2023-05-19T00:38:56;7.00;;;2.33;;
55879;SDS011;41802;51.564;-1.838;2023-05-19T00:41:26;5.95;;;2.03;;
55879;SDS011;41802;51.564;-1.838;2023-05-19T00:43:54;8.50;;;2.03;;
55879;SDS011;41802;51.564;-1.838;2023-05-19T00:46:21;8.43;;;3.13;;
55879;SDS011;41802;51.564;-1.838;2023-05-19T00:48:50;8.88;;;2.47;;
55879;SDS011;41802;51.564;-1.838;2023-05-19T00:51:18;10.75;;;2.80;;
55879;SDS011;41802;51.564;-1.838;2023-05-19T00:53:47;12.52;;;3.00;;
55879;SDS011;41802;51.564;-1.838;2023-05-19T00:56:19;7.27;;;2.40;;
55879;SDS011;41802;51.564;-1.838;2023-05-19T00:58:51;8.77;;;2.85;;
55879;SDS011;41802;51.564;-1.838;2023-05-19T01:01:20;9.23;;;2.17;;
55879;SDS011;41802;51.564;-1.838;2023-05-19T01:03:48;10.75;;;3.13;;
55879;SDS011;41802;51.564;-1.838;2023-05-19T01:06:16;6.55;;;2.08;;
55879;SDS011;41802;51.564;-1.838;2023-05-19T01:08:46;8.57;;;2.77;;
55879;SDS011;41802;51.564;-1.838;2023-05-19T01:11:14;6.65;;;2.40;;
55879;SDS011;41802;51.564;-1.838;2023-05-19T01:13:41;7.43;;;2.53;;
55879;SDS011;41802;51.564;-1.838;2023-05-19T01:16:13;6.75;;;2.85;;
55879;SDS011;41802;51.564;-1.838;2023-05-19T01:18:44;8.90;;;2.40;;
55879;SDS011;41802;51.564;-1.838;2023-05-19T01:21:19;9.07;;;3.00;;
55879;SDS011;41802;51.564;-1.838;2023-05-19T01:23:54;7.50;;;2.72;;
55879;SDS011;41802;51.564;-1.838;2023-05-19T01:26:34;9.65;;;2.72;;
55879;SDS011;41802;51.564;-1.838;2023-05-19T01:29:07;7.50;;;2.10;;
55879;SDS011;41802;51.564;-1.838;2023-05-19T01:31:44;8.82;;;2.53;;
55879;SDS011;41802;51.564;-1.838;2023-05-19T01:34:14;7.37;;;2.63;;
55879;SDS011;41802;51.564;-1.838;2023-05-19T01:36:43;10.68;;;2.50;;
55879;SDS011;41802;51.564;-1.838;2023-05-19T01:39:14;9.70;;;3.13;;
55879;SDS011;41802;51.564;-1.838;2023-05-19T01:41:42;10.70;;;2.95;;
55879;SDS011;41802;51.564;-1.838;2023-05-19T01:44:11;7.38;;;2.67;;
55879;SDS011;41802;51.564;-1.838;2023-05-19T01:46:39;8.53;;;2.80;;
55879;SDS011;41802;51.564;-1.838;2023-05-19T01:49:08;8.38;;;2.97;;
55879;SDS011;41802;51.564;-1.838;2023-05-19T01:51:37;8.98;;;2.97;;
55879;SDS011;41802;51.564;-1.838;2023-05-19T01:54:06;10.48;;;3.90;;
55879;SDS011;41802;51.564;-1.838;2023-05-19T01:56:37;6.68;;;2.97;;
55879;SDS011;41802;51.564;-1.838;2023-05-19T01:59:11;9.03;;;2.83;;
55879;SDS011;41802;51.564;-1.838;2023-05-19T02:01:41;10.68;;;3.08;;
55879;SDS011;41802;51.564;-1.838;2023-05-19T02:04:18;8.43;;;2.80;;
55879;SDS011;41802;51.564;-1.838;2023-05-19T02:06:48;10.40;;;3.38;;
55879;SDS011;41802;51.564;-1.838;2023-05-19T02:09:22;7.15;;;3.17;;
55879;SDS011;41802;51.564;-1.838;2023-05-19T02:11:51;9.47;;;2.90;;
55879;SDS011;41802;51.564;-1.838;2023-05-19T02:14:23;12.13;;;3.30;;
55879;SDS011;41802;51.564;-1.838;2023-05-19T02:16:52;8.95;;;2.65;;
55879;SDS011;41802;51.564;-1.838;2023-05-19T02:19:22;9.38;;;3.03;;
55879;SDS011;41802;51.564;-1.838;2023-05-19T02:21:51;8.93;;;2.63;;
55879;SDS011;41802;51.564;-1.838;2023-05-19T02:24:18;11.07;;;3.07;;
55879;SDS011;41802;51.564;-1.838;2023-05-19T02:26:50;11.35;;;3.20;;
55879;SDS011;41802;51.564;-1.838;2023-05-19T02:29:18;9.60;;;3.80;;
55879;SDS011;41802;51.564;-1.838;2023-05-19T02:31:47;8.57;;;2.97;;
55879;SDS011;41802;51.564;-1.838;2023-05-19T02:34:14;11.10;;;3.28;;
55879;SDS011;41802;51.564;-1.838;2023-05-19T02:36:44;9.83;;;3.60;;
55879;SDS011;41802;51.564;-1.838;2023-05-19T02:39:17;8.57;;;3.25;;
55879;SDS011;41802;51.564;-1.838;2023-05-19T02:41:46;10.60;;;3.63;;
55879;SDS011;41802;51.564;-1.838;2023-05-19T02:44:13;7.80;;;3.00;;
55879;SDS011;41802;51.564;-1.838;2023-05-19T02:46:42;14.50;;;3.53;;
55879;SDS011;41802;51.564;-1.838;2023-05-19T02:49:10;14.10;;;3.67;;
55879;SDS011;41802;51.564;-1.838;2023-05-19T02:51:37;13.35;;;3.13;;
55879;SDS011;41802;51.564;-1.838;2023-05-19T02:54:07;10.43;;;3.15;;
55879;SDS011;41802;51.564;-1.838;2023-05-19T02:56:35;7.80;;;2.70;;
55879;SDS011;41802;51.564;-1.838;2023-05-19T02:59:03;9.45;;;3.25;;
55879;SDS011;41802;51.564;-1.838;2023-05-19T03:01:31;9.33;;;3.20;;
55879;SDS011;41802;51.564;-1.838;2023-05-19T03:04:00;9.60;;;3.10;;
55879;SDS011;41802;51.564;-1.838;2023-05-19T03:06:27;14.80;;;4.47;;
55879;SDS011;41802;51.564;-1.838;2023-05-19T03:08:57;11.30;;;3.65;;
55879;SDS011;41802;51.564;-1.838;2023-05-19T03:11:28;9.35;;;3.90;;
55879;SDS011;41802;51.564;-1.838;2023-05-19T03:13:56;8.47;;;2.97;;
55879;SDS011;41802;51.564;-1.838;2023-05-19T03:16:24;10.18;;;3.35;;
55879;SDS011;41802;51.564;-1.838;2023-05-19T03:18:54;10.43;;;4.13;;
55879;SDS011;41802;51.564;-1.838;2023-05-19T03:21:22;9.73;;;3.28;;
55879;SDS011;41802;51.564;-1.838;2023-05-19T03:23:50;11.98;;;3.70;;
55879;SDS011;41802;51.564;-1.838;2023-05-19T03:26:18;13.70;;;3.50;;
55879;SDS011;41802;51.564;-1.838;2023-05-19T03:28:50;11.18;;;3.40;;
55879;SDS011;41802;51.564;-1.838;2023-05-19T03:31:18;11.93;;;3.40;;
55879;SDS011;41802;51.564;-1.838;2023-05-19T03:33:46;11.52;;;3.75;;
55879;SDS011;41802;51.564;-1.838;2023-05-19T03:36:14;15.68;;;4.13;;
55879;SDS011;41802;51.564;-1.838;2023-05-19T03:38:43;10.60;;;3.63;;
55879;SDS011;41802;51.564;-1.838;2023-05-19T03:41:11;10.77;;;3.30;;
55879;SDS011;41802;51.564;-1.838;2023-05-19T03:43:39;12.65;;;3.67;;
55879;SDS011;41802;51.564;-1.838;2023-05-19T03:46:09;12.43;;;3.72;;
55879;SDS011;41802;51.564;-1.838;2023-05-19T03:48:37;10.52;;;3.47;;
55879;SDS011;41802;51.564;-1.838;2023-05-19T03:51:04;10.27;;;3.47;;
55879;SDS011;41802;51.564;-1.838;2023-05-19T03:53:33;11.90;;;3.83;;
55879;SDS011;41802;51.564;-1.838;2023-05-19T03:56:01;7.55;;;3.15;;
55879;SDS011;41802;51.564;-1.838;2023-05-19T03:58:28;12.40;;;4.03;;
55879;SDS011;41802;51.564;-1.838;2023-05-19T04:00:57;11.07;;;3.55;;
55879;SDS011;41802;51.564;-1.838;2023-05-19T04:03:26;8.67;;;3.57;;
55879;SDS011;41802;51.564;-1.838;2023-05-19T04:05:54;11.00;;;3.80;;
55879;SDS011;41802;51.564;-1.838;2023-05-19T04:08:22;10.68;;;3.10;;
55879;SDS011;41802;51.564;-1.838;2023-05-19T04:10:50;9.00;;;2.75;;
55879;SDS011;41802;51.564;-1.838;2023-05-19T04:13:17;9.50;;;3.28;;
55879;SDS011;41802;51.564;-1.838;2023-05-19T04:15:45;8.23;;;3.50;;
55879;SDS011;41802;51.564;-1.838;2023-05-19T04:18:13;9.77;;;3.30;;
55879;SDS011;41802;51.564;-1.838;2023-05-19T04:20:42;10.52;;;2.67;;
55879;SDS011;41802;51.564;-1.838;2023-05-19T04:23:11;8.15;;;2.95;;
55879;SDS011;41802;51.564;-1.838;2023-05-19T04:25:39;9.68;;;3.38;;
55879;SDS011;41802;51.564;-1.838;2023-05-19T04:28:07;11.87;;;3.33;;
55879;SDS011;41802;51.564;-1.838;2023-05-19T04:30:35;12.27;;;3.67;;
55879;SDS011;41802;51.564;-1.838;2023-05-19T04:33:04;12.25;;;3.95;;
55879;SDS011;41802;51.564;-1.838;2023-05-19T04:35:33;7.35;;;3.25;;
55879;SDS011;41802;51.564;-1.838;2023-05-19T04:38:02;11.27;;;4.03;;
55879;SDS011;41802;51.564;-1.838;2023-05-19T04:40:30;17.13;;;3.90;;
55879;SDS011;41802;51.564;-1.838;2023-05-19T04:42:58;9.82;;;3.70;;
55879;SDS011;41802;51.564;-1.838;2023-05-19T04:45:28;12.05;;;3.47;;
55879;SDS011;41802;51.564;-1.838;2023-05-19T04:47:58;10.65;;;3.80;;
55879;SDS011;41802;51.564;-1.838;2023-05-19T04:50:27;9.25;;;4.05;;
55879;SDS011;41802;51.564;-1.838;2023-05-19T04:52:57;10.23;;;3.97;;
55879;SDS011;41802;51.564;-1.838;2023-05-19T04:55:26;9.63;;;4.10;;
55879;SDS011;41802;51.564;-1.838;2023-05-19T04:57:54;10.57;;;3.78;;
55879;SDS011;41802;51.564;-1.838;2023-05-19T05:00:22;9.23;;;3.97;;
55879;SDS011;41802;51.564;-1.838;2023-05-19T05:02:50;9.40;;;3.25;;
55879;SDS011;41802;51.564;-1.838;2023-05-19T05:05:18;12.03;;;3.77;;
55879;SDS011;41802;51.564;-1.838;2023-05-19T05:07:47;11.90;;;3.55;;
55879;SDS011;41802;51.564;-1.838;2023-05-19T05:10:15;10.38;;;4.03;;
55879;SDS011;41802;51.564;-1.838;2023-05-19T05:12:44;10.55;;;3.63;;
55879;SDS011;41802;51.564;-1.838;2023-05-19T05:15:12;11.90;;;3.60;;
55879;SDS011;41802;51.564;-1.838;2023-05-19T05:17:41;10.50;;;3.50;;
55879;SDS011;41802;51.564;-1.838;2023-05-19T05:20:15;8.70;;;3.17;;
55879;SDS011;41802;51.564;-1.838;2023-05-19T05:22:43;10.02;;;3.05;;
55879;SDS011;41802;51.564;-1.838;2023-05-19T05:25:12;9.45;;;3.00;;
55879;SDS011;41802;51.564;-1.838;2023-05-19T05:27:41;10.85;;;3.70;;
55879;SDS011;41802;51.564;-1.838;2023-05-19T05:30:10;11.67;;;3.40;;
55879;SDS011;41802;51.564;-1.838;2023-05-19T05:32:38;7.80;;;2.72;;
55879;SDS011;41802;51.564;-1.838;2023-05-19T05:35:06;9.38;;;3.22;;
55879;SDS011;41802;51.564;-1.838;2023-05-19T05:37:35;8.13;;;3.05;;
55879;SDS011;41802;51.564;-1.838;2023-05-19T05:40:02;10.93;;;3.15;;
55879;SDS011;41802;51.564;-1.838;2023-05-19T05:42:36;10.13;;;3.63;;
55879;SDS011;41802;51.564;-1.838;2023-05-19T05:45:05;7.40;;;2.70;;
55879;SDS011;41802;51.564;-1.838;2023-05-19T05:47:35;8.02;;;2.97;;
55879;SDS011;41802;51.564;-1.838;2023-05-19T05:50:07;10.98;;;3.20;;
55879;SDS011;41802;51.564;-1.838;2023-05-19T05:52:35;8.98;;;3.22;;
55879;SDS011;41802;51.564;-1.838;2023-05-19T05:55:04;14.67;;;3.70;;
55879;SDS011;41802;51.564;-1.838;2023-05-19T05:57:32;10.52;;;3.10;;
55879;SDS011;41802;51.564;-1.838;2023-05-19T06:00:02;10.77;;;2.92;;
55879;SDS011;41802;51.564;-1.838;2023-05-19T06:02:32;8.63;;;3.30;;
55879;SDS011;41802;51.564;-1.838;2023-05-19T06:05:01;10.98;;;3.58;;
55879;SDS011;41802;51.564;-1.838;2023-05-19T06:07:30;10.17;;;2.83;;
55879;SDS011;41802;51.564;-1.838;2023-05-19T06:09:57;11.00;;;3.47;;
55879;SDS011;41802;51.564;-1.838;2023-05-19T06:12:25;8.70;;;3.08;;
55879;SDS011;41802;51.564;-1.838;2023-05-19T06:14:54;12.50;;;3.30;;
55879;SDS011;41802;51.564;-1.838;2023-05-19T06:17:21;9.75;;;3.40;;
55879;SDS011;41802;51.564;-1.838;2023-05-19T06:19:50;9.83;;;3.17;;
55879;SDS011;41802;51.564;-1.838;2023-05-19T06:22:20;9.65;;;3.22;;
55879;SDS011;41802;51.564;-1.838;2023-05-19T06:24:48;7.20;;;2.85;;
55879;SDS011;41802;51.564;-1.838;2023-05-19T06:27:17;10.85;;;3.67;;
55879;SDS011;41802;51.564;-1.838;2023-05-19T06:29:46;10.23;;;3.22;;
55879;SDS011;41802;51.564;-1.838;2023-05-19T06:32:13;12.33;;;3.30;;
55879;SDS011;41802;51.564;-1.838;2023-05-19T06:34:41;8.38;;;2.92;;
55879;SDS011;41802;51.564;-1.838;2023-05-19T06:37:09;9.60;;;3.13;;
55879;SDS011;41802;51.564;-1.838;2023-05-19T06:39:38;12.30;;;3.10;;
55879;SDS011;41802;51.564;-1.838;2023-05-19T06:42:06;12.77;;;3.40;;
55879;SDS011;41802;51.564;-1.838;2023-05-19T06:44:34;11.40;;;4.17;;
55879;SDS011;41802;51.564;-1.838;2023-05-19T06:47:02;10.43;;;3.13;;
55879;SDS011;41802;51.564;-1.838;2023-05-19T06:49:30;8.48;;;3.08;;
55879;SDS011;41802;51.564;-1.838;2023-05-19T06:51:58;9.05;;;3.08;;
55879;SDS011;41802;51.564;-1.838;2023-05-19T06:54:26;10.30;;;4.03;;
55879;SDS011;41802;51.564;-1.838;2023-05-19T06:56:55;8.33;;;3.50;;
55879;SDS011;41802;51.564;-1.838;2023-05-19T06:59:23;12.35;;;2.95;;
55879;SDS011;41802;51.564;-1.838;2023-05-19T07:01:51;7.32;;;3.08;;
55879;SDS011;41802;51.564;-1.838;2023-05-19T07:04:19;9.07;;;3.05;;
55879;SDS011;41802;51.564;-1.838;2023-05-19T07:06:47;9.98;;;2.92;;
55879;SDS011;41802;51.564;-1.838;2023-05-19T07:09:15;9.90;;;3.37;;
55879;SDS011;41802;51.564;-1.838;2023-05-19T07:11:44;10.55;;;3.63;;
55879;SDS011;41802;51.564;-1.838;2023-05-19T07:14:14;10.95;;;3.80;;
55879;SDS011;41802;51.564;-1.838;2023-05-19T07:16:41;10.25;;;3.55;;
55879;SDS011;41802;51.564;-1.838;2023-05-19T07:19:09;8.82;;;3.22;;
55879;SDS011;41802;51.564;-1.838;2023-05-19T07:21:37;9.57;;;3.43;;
55879;SDS011;41802;51.564;-1.838;2023-05-19T07:24:05;10.85;;;3.50;;
55879;SDS011;41802;51.564;-1.838;2023-05-19T07:26:33;9.98;;;3.05;;
55879;SDS011;41802;51.564;-1.838;2023-05-19T07:29:01;9.20;;;3.30;;
55879;SDS011;41802;51.564;-1.838;2023-05-19T07:31:30;11.50;;;3.28;;
55879;SDS011;41802;51.564;-1.838;2023-05-19T07:33:58;8.17;;;3.10;;
55879;SDS011;41802;51.564;-1.838;2023-05-19T07:36:26;8.75;;;3.17;;
55879;SDS011;41802;51.564;-1.838;2023-05-19T07:38:54;10.50;;;3.75;;
55879;SDS011;41802;51.564;-1.838;2023-05-19T07:41:25;9.20;;;3.42;;
55879;SDS011;41802;51.564;-1.838;2023-05-19T07:43:53;9.50;;;3.20;;
55879;SDS011;41802;51.564;-1.838;2023-05-19T07:46:21;11.17;;;3.80;;
55879;SDS011;41802;51.564;-1.838;2023-05-19T07:48:50;10.50;;;3.10;;
55879;SDS011;41802;51.564;-1.838;2023-05-19T07:51:19;13.70;;;3.50;;
55879;SDS011;41802;51.564;-1.838;2023-05-19T07:53:46;11.30;;;3.47;;
55879;SDS011;41802;51.564;-1.838;2023-05-19T07:56:14;10.43;;;3.05;;
55879;SDS011;41802;51.564;-1.838;2023-05-19T07:58:42;12.37;;;3.57;;
55879;SDS011;41802;51.564;-1.838;2023-05-19T08:01:10;8.68;;;2.85;;
55879;SDS011;41802;51.564;-1.838;2023-05-19T08:03:38;7.32;;;2.85;;
55879;SDS011;41802;51.564;-1.838;2023-05-19T08:06:07;11.15;;;3.13;;
55879;SDS011;41802;51.564;-1.838;2023-05-19T08:08:34;9.45;;;3.28;;
55879;SDS011;41802;51.564;-1.838;2023-05-19T08:11:02;9.67;;;3.07;;
55879;SDS011;41802;51.564;-1.838;2023-05-19T08:13:32;7.13;;;2.85;;
55879;SDS011;41802;51.564;-1.838;2023-05-19T08:16:00;7.57;;;3.25;;
55879;SDS011;41802;51.564;-1.838;2023-05-19T08:18:28;8.00;;;2.92;;
55879;SDS011;41802;51.564;-1.838;2023-05-19T08:20:57;8.27;;;2.95;;
55879;SDS011;41802;51.564;-1.838;2023-05-19T08:23:26;18.40;;;3.77;;
55879;SDS011;41802;51.564;-1.838;2023-05-19T08:25:55;8.95;;;3.15;;
55879;SDS011;41802;51.564;-1.838;2023-05-19T08:28:23;9.90;;;4.20;;
55879;SDS011;41802;51.564;-1.838;2023-05-19T08:30:50;8.70;;;3.08;;
55879;SDS011;41802;51.564;-1.838;2023-05-19T08:33:18;11.52;;;3.85;;
55879;SDS011;41802;51.564;-1.838;2023-05-19T08:35:47;9.57;;;3.60;;
55879;SDS011;41802;51.564;-1.838;2023-05-19T08:38:16;12.85;;;4.20;;
55879;SDS011;41802;51.564;-1.838;2023-05-19T08:40:46;11.02;;;3.75;;
55879;SDS011;41802;51.564;-1.838;2023-05-19T08:43:14;13.57;;;4.22;;
55879;SDS011;41802;51.564;-1.838;2023-05-19T08:45:42;9.50;;;3.83;;
55879;SDS011;41802;51.564;-1.838;2023-05-19T08:48:10;10.50;;;4.10;;
55879;SDS011;41802;51.564;-1.838;2023-05-19T08:50:39;10.85;;;3.95;;
55879;SDS011;41802;51.564;-1.838;2023-05-19T08:53:09;11.82;;;4.32;;
55879;SDS011;41802;51.564;-1.838;2023-05-19T08:56:00;10.48;;;3.78;;
55879;SDS011;41802;51.564;-1.838;2023-05-19T08:58:29;15.30;;;4.47;;
55879;SDS011;41802;51.564;-1.838;2023-05-19T09:00:57;11.70;;;3.90;;
55879;SDS011;41802;51.564;-1.838;2023-05-19T09:03:26;12.63;;;4.53;;
55879;SDS011;41802;51.564;-1.838;2023-05-19T09:05:54;13.45;;;4.20;;
55879;SDS011;41802;51.564;-1.838;2023-05-19T09:08:22;11.25;;;4.50;;
55879;SDS011;41802;51.564;-1.838;2023-05-19T09:10:50;11.05;;;4.40;;
55879;SDS011;41802;51.564;-1.838;2023-05-19T09:13:19;11.77;;;4.10;;
55879;SDS011;41802;51.564;-1.838;2023-05-19T09:15:47;9.60;;;3.72;;
55879;SDS011;41802;51.564;-1.838;2023-05-19T09:18:16;13.35;;;4.70;;
55879;SDS011;41802;51.564;-1.838;2023-05-19T09:20:44;10.63;;;4.10;;
55879;SDS011;41802;51.564;-1.838;2023-05-19T09:23:13;9.63;;;3.88;;
55879;SDS011;41802;51.564;-1.838;2023-05-19T09:25:45;12.40;;;4.03;;
55879;SDS011;41802;51.564;-1.838;2023-05-19T09:28:14;14.85;;;4.70;;
55879;SDS011;41802;51.564;-1.838;2023-05-19T09:30:43;11.75;;;3.90;;
55879;SDS011;41802;51.564;-1.838;2023-05-19T09:33:13;13.27;;;3.80;;
55879;SDS011;41802;51.564;-1.838;2023-05-19T09:35:46;10.02;;;3.92;;
55879;SDS011;41802;51.564;-1.838;2023-05-19T09:38:16;11.53;;;3.90;;
55879;SDS011;41802;51.564;-1.838;2023-05-19T09:40:44;10.20;;;3.90;;
55879;SDS011;41802;51.564;-1.838;2023-05-19T09:43:15;10.88;;;3.90;;
55879;SDS011;41802;51.564;-1.838;2023-05-19T09:45:44;10.50;;;4.43;;
55879;SDS011;41802;51.564;-1.838;2023-05-19T09:48:13;12.38;;;4.57;;
55879;SDS011;41802;51.564;-1.838;2023-05-19T09:50:41;12.80;;;4.10;;
55879;SDS011;41802;51.564;-1.838;2023-05-19T09:53:13;12.02;;;4.30;;
55879;SDS011;41802;51.564;-1.838;2023-05-19T09:55:47;10.80;;;4.43;;
55879;SDS011;41802;51.564;-1.838;2023-05-19T09:58:15;9.88;;;3.83;;
55879;SDS011;41802;51.564;-1.838;2023-05-19T10:00:44;9.90;;;4.18;;
55879;SDS011;41802;51.564;-1.838;2023-05-19T10:03:14;9.30;;;3.80;;
55879;SDS011;41802;51.564;-1.838;2023-05-19T10:05:43;8.50;;;3.80;;
55879;SDS011;41802;51.564;-1.838;2023-05-19T10:08:11;14.07;;;3.78;;
55879;SDS011;41802;51.564;-1.838;2023-05-19T10:10:39;12.52;;;4.43;;
55879;SDS011;41802;51.564;-1.838;2023-05-19T10:13:07;10.13;;;4.38;;
55879;SDS011;41802;51.564;-1.838;2023-05-19T10:15:35;10.03;;;3.57;;
55879;SDS011;41802;51.564;-1.838;2023-05-19T10:18:25;11.48;;;4.05;;
55879;SDS011;41802;51.564;-1.838;2023-05-19T10:20:52;8.77;;;3.65;;
55879;SDS011;41802;51.564;-1.838;2023-05-19T10:23:21;11.35;;;3.00;;
55879;SDS011;41802;51.564;-1.838;2023-05-19T10:25:49;10.75;;;3.67;;
55879;SDS011;41802;51.564;-1.838;2023-05-19T10:28:17;14.20;;;4.00;;
55879;SDS011;41802;51.564;-1.838;2023-05-19T10:30:52;9.48;;;3.88;;
55879;SDS011;41802;51.564;-1.838;2023-05-19T10:33:20;9.23;;;4.03;;
55879;SDS011;41802;51.564;-1.838;2023-05-19T10:36:01;8.63;;;2.83;;
55879;SDS011;41802;51.564;-1.838;2023-05-19T10:38:37;10.25;;;4.18;;
55879;SDS011;41802;51.564;-1.838;2023-05-19T10:41:10;11.40;;;3.73;;
55879;SDS011;41802;51.564;-1.838;2023-05-19T10:43:48;9.90;;;4.00;;
55879;SDS011;41802;51.564;-1.838;2023-05-19T10:46:22;11.77;;;4.10;;
55879;SDS011;41802;51.564;-1.838;2023-05-19T10:48:49;14.15;;;4.00;;
55879;SDS011;41802;51.564;-1.838;2023-05-19T10:51:19;11.52;;;4.40;;
55879;SDS011;41802;51.564;-1.838;2023-05-19T10:53:48;12.07;;;4.47;;
55879;SDS011;41802;51.564;-1.838;2023-05-19T10:56:29;9.80;;;4.13;;
55879;SDS011;41802;51.564;-1.838;2023-05-19T10:59:00;11.15;;;4.55;;
55879;SDS011;41802;51.564;-1.838;2023-05-19T11:01:29;10.73;;;4.13;;
55879;SDS011;41802;51.564;-1.838;2023-05-19T11:04:02;11.35;;;3.58;;
55879;SDS011;41802;51.564;-1.838;2023-05-19T11:06:33;9.80;;;4.23;;
55879;SDS011;41802;51.564;-1.838;2023-05-19T11:09:08;11.40;;;4.45;;
55879;SDS011;41802;51.564;-1.838;2023-05-19T11:11:44;9.75;;;4.93;;
55879;SDS011;41802;51.564;-1.838;2023-05-19T11:14:13;11.07;;;3.83;;
55879;SDS011;41802;51.564;-1.838;2023-05-19T11:16:43;12.98;;;4.90;;
55879;SDS011;41802;51.564;-1.838;2023-05-19T11:19:16;12.70;;;4.77;;
55879;SDS011;41802;51.564;-1.838;2023-05-19T11:21:50;11.00;;;3.88;;
55879;SDS011;41802;51.564;-1.838;2023-05-19T11:24:33;11.55;;;4.70;;
55879;SDS011;41802;51.564;-1.838;2023-05-19T11:27:22;10.45;;;4.28;;
55879;SDS011;41802;51.564;-1.838;2023-05-19T11:29:51;11.65;;;4.90;;
55879;SDS011;41802;51.564;-1.838;2023-05-19T11:32:19;10.87;;;4.60;;
55879;SDS011;41802;51.564;-1.838;2023-05-19T11:34:48;10.95;;;4.68;;
55879;SDS011;41802;51.564;-1.838;2023-05-19T11:37:17;11.50;;;5.45;;
55879;SDS011;41802;51.564;-1.838;2023-05-19T11:39:46;11.50;;;5.15;;
55879;SDS011;41802;51.564;-1.838;2023-05-19T11:42:15;13.43;;;5.35;;
55879;SDS011;41802;51.564;-1.838;2023-05-19T11:44:43;14.77;;;6.03;;
55879;SDS011;41802;51.564;-1.838;2023-05-19T11:47:12;14.18;;;6.28;;
55879;SDS011;41802;51.564;-1.838;2023-05-19T11:49:41;13.13;;;4.97;;
55879;SDS011;41802;51.564;-1.838;2023-05-19T11:52:09;14.00;;;5.93;;
55879;SDS011;41802;51.564;-1.838;2023-05-19T11:54:39;16.77;;;6.10;;
55879;SDS011;41802;51.564;-1.838;2023-05-19T11:57:07;12.90;;;5.27;;
55879;SDS011;41802;51.564;-1.838;2023-05-19T11:59:36;14.98;;;4.95;;
55879;SDS011;41802;51.564;-1.838;2023-05-19T12:02:14;10.85;;;4.13;;
55879;SDS011;41802;51.564;-1.838;2023-05-19T12:04:42;10.57;;;4.80;;
55879;SDS011;41802;51.564;-1.838;2023-05-19T12:07:12;15.15;;;5.03;;
55879;SDS011;41802;51.564;-1.838;2023-05-19T12:09:44;12.00;;;5.50;;
55879;SDS011;41802;51.564;-1.838;2023-05-19T12:12:14;10.40;;;4.78;;
55879;SDS011;41802;51.564;-1.838;2023-05-19T12:14:42;8.60;;;3.33;;
55879;SDS011;41802;51.564;-1.838;2023-05-19T12:17:10;9.50;;;3.25;;
55879;SDS011;41802;51.564;-1.838;2023-05-19T12:19:38;11.32;;;4.60;;
55879;SDS011;41802;51.564;-1.838;2023-05-19T12:22:06;11.97;;;4.10;;
55879;SDS011;41802;51.564;-1.838;2023-05-19T12:24:34;10.25;;;4.00;;
55879;SDS011;41802;51.564;-1.838;2023-05-19T12:27:15;13.60;;;5.30;;
55879;SDS011;41802;51.564;-1.838;2023-05-19T12:29:47;10.27;;;3.63;;
55879;SDS011;41802;51.564;-1.838;2023-05-19T12:32:15;11.40;;;4.50;;
55879;SDS011;41802;51.564;-1.838;2023-05-19T12:34:43;9.00;;;3.80;;
55879;SDS011;41802;51.564;-1.838;2023-05-19T12:37:12;12.43;;;4.18;;
55879;SDS011;41802;51.564;-1.838;2023-05-19T12:39:40;10.25;;;3.67;;
55879;SDS011;41802;51.564;-1.838;2023-05-19T12:42:11;9.32;;;3.00;;
55879;SDS011;41802;51.564;-1.838;2023-05-19T12:44:41;12.60;;;4.55;;
55879;SDS011;41802;51.564;-1.838;2023-05-19T12:47:13;11.50;;;4.57;;
55879;SDS011;41802;51.564;-1.838;2023-05-19T12:49:54;10.00;;;3.95;;
55879;SDS011;41802;51.564;-1.838;2023-05-19T12:52:23;13.73;;;4.95;;
55879;SDS011;41802;51.564;-1.838;2023-05-19T12:54:56;13.07;;;4.70;;
55879;SDS011;41802;51.564;-1.838;2023-05-19T12:57:26;10.90;;;4.53;;
55879;SDS011;41802;51.564;-1.838;2023-05-19T13:00:00;10.27;;;4.30;;
55879;SDS011;41802;51.564;-1.838;2023-05-19T13:02:32;11.55;;;4.20;;
55879;SDS011;41802;51.564;-1.838;2023-05-19T13:05:01;11.48;;;5.25;;
55879;SDS011;41802;51.564;-1.838;2023-05-19T13:07:29;10.27;;;4.93;;
55879;SDS011;41802;51.564;-1.838;2023-05-19T13:09:57;15.80;;;4.15;;
55879;SDS011;41802;51.564;-1.838;2023-05-19T13:12:26;10.53;;;4.67;;
55879;SDS011;41802;51.564;-1.838;2023-05-19T13:14:54;13.27;;;5.50;;
55879;SDS011;41802;51.564;-1.838;2023-05-19T13:17:22;15.40;;;5.43;;
55879;SDS011;41802;51.564;-1.838;2023-05-19T13:19:50;12.90;;;6.13;;
55879;SDS011;41802;51.564;-1.838;2023-05-19T13:22:18;15.70;;;6.60;;
55879;SDS011;41802;51.564;-1.838;2023-05-19T13:24:46;13.80;;;5.70;;
55879;SDS011;41802;51.564;-1.838;2023-05-19T13:27:14;13.48;;;6.50;;
55879;SDS011;41802;51.564;-1.838;2023-05-19T13:29:42;18.27;;;5.97;;
55879;SDS011;41802;51.564;-1.838;2023-05-19T13:32:12;12.05;;;5.78;;
55879;SDS011;41802;51.564;-1.838;2023-05-19T13:34:40;13.25;;;6.43;;
55879;SDS011;41802;51.564;-1.838;2023-05-19T13:37:08;15.87;;;7.20;;
55879;SDS011;41802;51.564;-1.838;2023-05-19T13:39:37;15.73;;;5.97;;
55879;SDS011;41802;51.564;-1.838;2023-05-19T13:42:05;11.43;;;6.00;;
55879;SDS011;41802;51.564;-1.838;2023-05-19T13:44:33;13.82;;;5.95;;
55879;SDS011;41802;51.564;-1.838;2023-05-19T13:47:03;12.18;;;6.30;;
55879;SDS011;41802;51.564;-1.838;2023-05-19T13:49:31;14.13;;;4.30;;
55879;SDS011;41802;51.564;-1.838;2023-05-19T13:51:58;10.65;;;3.95;;
55879;SDS011;41802;51.564;-1.838;2023-05-19T13:54:27;10.95;;;5.00;;
55879;SDS011;41802;51.564;-1.838;2023-05-19T13:56:55;10.35;;;4.30;;
55879;SDS011;41802;51.564;-1.838;2023-05-19T13:59:24;12.00;;;4.13;;
55879;SDS011;41802;51.564;-1.838;2023-05-19T14:01:54;8.90;;;3.70;;
55879;SDS011;41802;51.564;-1.838;2023-05-19T14:04:23;8.60;;;3.05;;
55879;SDS011;41802;51.564;-1.838;2023-05-19T14:06:51;7.53;;;3.00;;
55879;SDS011;41802;51.564;-1.838;2023-05-19T14:09:19;12.13;;;3.83;;
55879;SDS011;41802;51.564;-1.838;2023-05-19T14:11:47;10.75;;;3.78;;
55879;SDS011;41802;51.564;-1.838;2023-05-19T14:14:15;8.73;;;3.13;;
55879;SDS011;41802;51.564;-1.838;2023-05-19T14:16:43;9.02;;;4.25;;
55879;SDS011;41802;51.564;-1.838;2023-05-19T14:19:11;9.77;;;4.13;;
55879;SDS011;41802;51.564;-1.838;2023-05-19T14:21:41;9.70;;;3.83;;
55879;SDS011;41802;51.564;-1.838;2023-05-19T14:24:09;11.25;;;3.92;;
55879;SDS011;41802;51.564;-1.838;2023-05-19T14:26:37;8.90;;;3.80;;
55879;SDS011;41802;51.564;-1.838;2023-05-19T14:29:04;15.90;;;4.65;;
55879;SDS011;41802;51.564;-1.838;2023-05-19T14:31:33;10.77;;;4.45;;
55879;SDS011;41802;51.564;-1.838;2023-05-19T14:34:01;15.40;;;4.57;;
55879;SDS011;41802;51.564;-1.838;2023-05-19T14:36:29;10.70;;;4.93;;
55879;SDS011;41802;51.564;-1.838;2023-05-19T14:39:00;12.60;;;4.30;;